Decatur, Tennessee
Current Conditions -  °F | °C
As of 1:35 PM on Sunday 25 Jan 2015 (Local Time) from KMMI Reporting Station
Clear Clear  
Wind Chill: 54°   Ceiling: Unl
Heat Index: 54°   Visibility: 10mi
Dew Point: 30°   Wind: 8mph
Humidity: 41%   Direction: 190°S
Pressure: 29.77"   Gusts: NA
Location:  35.51°N, 84.79°W
Report Text: KMMI 251835Z AUTO 19007KT 160V230 10SM CLR 12/M01 A2977 RMK
Loading
Personal Weather Stations






























Interactive Weather Map New forecast layout! Learn more

10-Day Weather Forecast

Advertisements
Track Severe Weather on mobile